Time;durP1;ratioP1;P1;durP2;ratioP2;P2;SDS_P1;SDS_P2;PMS_P1;PMS_P2;Temp;Humidity;BMP_temperature;BMP_pressure;BME280_temperature;BME280_humidity;BME280_pressure;Samples;Min_cycle;Max_cycle;Signal;HPM_P1;HPM_P2
2023/05/31 00:00:15;;;;;;;9.50;6.97;;;;;;;;;;5000296;28;20215;-84
2023/05/31 00:02:41;;;;;;;8.97;6.73;;;;;;;;;;5027586;28;20247;-85
2023/05/31 00:05:09;;;;;;;7.70;6.37;;;;;;;;;;4987584;28;20221;-86
2023/05/31 00:07:35;;;;;;;7.53;6.83;;;;;;;;;;5021683;28;20721;-86
2023/05/31 00:10:00;;;;;;;7.73;6.87;;;;;;;;;;4979372;28;20216;-84
2023/05/31 00:12:26;;;;;;;7.20;6.57;;;;;;;;;;5022279;28;20804;-83
2023/05/31 00:14:51;;;;;;;9.67;6.43;;;;;;;;;;4979779;28;20217;-85
2023/05/31 00:17:17;;;;;;;7.57;6.57;;;;;;;;;;4980126;28;20227;-85
2023/05/31 00:19:43;;;;;;;8.90;6.73;;;;;;;;;;5015032;28;20213;-84
2023/05/31 00:22:09;;;;;;;7.20;6.50;;;;;;;;;;4984759;28;20248;-85
2023/05/31 00:24:37;;;;;;;7.60;6.40;;;;;;;;;;4986166;28;20343;-86
2023/05/31 00:27:03;;;;;;;9.30;6.13;;;;;;;;;;4981503;28;20681;-85
2023/05/31 00:29:30;;;;;;;6.80;6.10;;;;;;;;;;5013790;28;20232;-84
2023/05/31 00:31:58;;;;;;;7.77;5.90;;;;;;;;;;5019578;28;20224;-82
2023/05/31 00:34:24;;;;;;;6.80;5.53;;;;;;;;;;4983248;28;20524;-82
2023/05/31 00:36:50;;;;;;;6.43;5.77;;;;;;;;;;4989845;28;20688;-84
2023/05/31 00:39:18;;;;;;;7.20;6.20;;;;;;;;;;5004327;28;20220;-83
2023/05/31 00:41:46;;;;;;;6.73;6.03;;;;;;;;;;4997571;28;20221;-86
2023/05/31 00:44:11;;;;;;;6.60;5.93;;;;;;;;;;4987814;28;20238;-86
2023/05/31 00:46:38;;;;;;;6.17;5.57;;;;;;;;;;5041508;28;20709;-84
2023/05/31 00:49:03;;;;;;;7.37;5.70;;;;;;;;;;5001485;28;20225;-86
2023/05/31 00:51:31;;;;;;;6.73;5.60;;;;;;;;;;5037084;28;20682;-83
2023/05/31 00:53:59;;;;;;;5.97;5.40;;;;;;;;;;4993605;28;20567;-83
2023/05/31 00:56:25;;;;;;;6.10;5.50;;;;;;;;;;5001380;28;20223;-84
2023/05/31 00:58:53;;;;;;;6.03;5.43;;;;;;;;;;4995304;28;20290;-83
2023/05/31 01:01:27;;;;;;;7.03;5.73;;;;;;;;;;4987300;28;20227;-85
2023/05/31 01:03:56;;;;;;;6.30;5.70;;;;;;;;;;4994971;28;20227;-84
2023/05/31 01:06:23;;;;;;;5.60;5.07;;;;;;;;;;5017524;28;20247;-82
2023/05/31 01:08:51;;;;;;;7.67;5.50;;;;;;;;;;5002688;28;20229;-84
2023/05/31 01:11:34;;;;;;;5.77;5.20;;;;;;;;;;4980128;28;20298;-83
2023/05/31 01:14:23;;;;;;;6.20;5.20;;;;;;;;;;5033982;28;20209;-84
2023/05/31 01:16:57;;;;;;;5.23;4.73;;;;;;;;;;5033812;28;20228;-84
2023/05/31 01:19:49;;;;;;;6.17;4.57;;;;;;;;;;5011976;28;20224;-84
2023/05/31 01:22:53;;;;;;;7.87;4.97;;;;;;;;;;4970750;28;20242;-84
2023/05/31 01:25:35;;;;;;;5.37;4.87;;;;;;;;;;4990506;28;20264;-85
2023/05/31 01:28:05;;;;;;;5.93;4.87;;;;;;;;;;5033585;28;20224;-84
2023/05/31 01:30:31;;;;;;;5.40;4.60;;;;;;;;;;4982742;28;20224;-80
2023/05/31 01:32:58;;;;;;;7.17;5.23;;;;;;;;;;5011228;28;20268;-81
2023/05/31 01:35:24;;;;;;;6.07;4.83;;;;;;;;;;5036784;28;20312;-87
2023/05/31 01:37:52;;;;;;;5.37;4.87;;;;;;;;;;5016006;28;20753;-85
2023/05/31 01:40:22;;;;;;;5.57;4.90;;;;;;;;;;5015115;28;20240;-83
2023/05/31 01:42:48;;;;;;;4.93;4.43;;;;;;;;;;5003011;28;20271;-85
2023/05/31 01:45:15;;;;;;;6.00;5.10;;;;;;;;;;5001889;28;20232;-84
2023/05/31 01:47:41;;;;;;;5.10;4.60;;;;;;;;;;4989302;28;20225;-86
2023/05/31 01:50:10;;;;;;;5.63;4.93;;;;;;;;;;5001326;28;20212;-85
2023/05/31 01:52:39;;;;;;;5.10;4.70;;;;;;;;;;4984494;28;20212;-84
2023/05/31 01:55:05;;;;;;;6.63;5.43;;;;;;;;;;4993373;28;20217;-85
2023/05/31 01:57:33;;;;;;;5.30;4.80;;;;;;;;;;4992339;28;20592;-85
2023/05/31 01:59:59;;;;;;;6.10;5.30;;;;;;;;;;4999067;28;20221;-82
2023/05/31 02:02:25;;;;;;;5.37;4.87;;;;;;;;;;4992866;28;20219;-85
2023/05/31 02:05:08;;;;;;;7.03;4.67;;;;;;;;;;5027869;28;20256;-85
2023/05/31 02:07:38;;;;;;;5.73;5.20;;;;;;;;;;5034001;28;20251;-84
2023/05/31 02:10:06;;;;;;;5.83;5.00;;;;;;;;;;5018688;28;20713;-84
2023/05/31 02:12:34;;;;;;;6.23;4.90;;;;;;;;;;4990118;28;20231;-84
2023/05/31 02:15:03;;;;;;;6.73;4.73;;;;;;;;;;4990573;28;20228;-85
2023/05/31 02:17:33;;;;;;;5.43;4.93;;;;;;;;;;5043391;28;20213;-83
2023/05/31 02:20:02;;;;;;;5.73;4.77;;;;;;;;;;5013537;28;20225;-83
2023/05/31 02:22:30;;;;;;;5.03;4.60;;;;;;;;;;5036718;28;20228;-83
2023/05/31 02:24:56;;;;;;;6.67;4.67;;;;;;;;;;4997563;28;20232;-83
2023/05/31 02:27:21;;;;;;;6.97;5.10;;;;;;;;;;5015797;28;20439;-83
2023/05/31 02:29:52;;;;;;;6.43;4.97;;;;;;;;;;5014744;28;20312;-82
2023/05/31 02:32:18;;;;;;;5.50;4.90;;;;;;;;;;5002045;28;20217;-83
2023/05/31 02:34:47;;;;;;;5.67;4.83;;;;;;;;;;5003761;28;20212;-84
2023/05/31 02:37:15;;;;;;;5.90;5.33;;;;;;;;;;5021363;28;20201;-83
2023/05/31 02:39:43;;;;;;;5.37;4.87;;;;;;;;;;5006429;28;20204;-82
2023/05/31 02:42:10;;;;;;;5.17;4.77;;;;;;;;;;5020756;28;20275;-84
2023/05/31 02:44:38;;;;;;;5.17;4.67;;;;;;;;;;5009912;28;20205;-83
2023/05/31 02:47:04;;;;;;;6.83;4.90;;;;;;;;;;5014837;28;20212;-83
2023/05/31 02:49:31;;;;;;;6.10;5.37;;;;;;;;;;5014351;28;20288;-84
2023/05/31 02:51:57;;;;;;;5.47;4.97;;;;;;;;;;5040764;28;20213;-83
2023/05/31 02:54:22;;;;;;;5.90;5.30;;;;;;;;;;5037705;28;20308;-83
2023/05/31 02:56:48;;;;;;;5.90;5.37;;;;;;;;;;5023112;28;20229;-83
2023/05/31 02:59:16;;;;;;;5.97;5.37;;;;;;;;;;5035601;28;20273;-84
2023/05/31 03:01:47;;;;;;;7.37;5.90;;;;;;;;;;5037357;28;20220;-84
2023/05/31 03:04:33;;;;;;;6.63;4.90;;;;;;;;;;5038855;28;20236;-83
2023/05/31 03:07:03;;;;;;;6.10;5.27;;;;;;;;;;5018805;28;20224;-83
2023/05/31 03:09:30;;;;;;;6.00;5.40;;;;;;;;;;5034877;28;20229;-83
2023/05/31 03:12:03;;;;;;;5.40;4.90;;;;;;;;;;5055929;28;20228;-82
2023/05/31 03:14:30;;;;;;;6.40;5.27;;;;;;;;;;5006358;28;20283;-83
2023/05/31 03:16:56;;;;;;;5.70;5.10;;;;;;;;;;5013972;28;20279;-83
2023/05/31 03:19:25;;;;;;;5.90;5.30;;;;;;;;;;5019591;28;20246;-82
2023/05/31 03:21:54;;;;;;;5.67;5.17;;;;;;;;;;5016632;28;20267;-83
2023/05/31 03:24:20;;;;;;;5.97;5.07;;;;;;;;;;5048867;28;20229;-83
2023/05/31 03:26:48;;;;;;;6.00;5.40;;;;;;;;;;5021853;28;20312;-82
2023/05/31 03:29:14;;;;;;;5.00;4.50;;;;;;;;;;5015991;28;20210;-81
2023/05/31 03:31:39;;;;;;;5.47;4.97;;;;;;;;;;5032488;28;20204;-82
2023/05/31 03:34:10;;;;;;;5.37;4.83;;;;;;;;;;4998556;28;20284;-83
2023/05/31 03:36:38;;;;;;;5.87;5.27;;;;;;;;;;5044944;28;20221;-84
2023/05/31 03:39:21;;;;;;;5.83;5.27;;;;;;;;;;5015145;28;20275;-82
2023/05/31 03:41:49;;;;;;;5.90;5.03;;;;;;;;;;5019848;28;20228;-82
2023/05/31 03:44:15;;;;;;;6.30;5.17;;;;;;;;;;5002133;28;20251;-82
2023/05/31 03:46:42;;;;;;;6.27;4.93;;;;;;;;;;5000842;28;20228;-82
2023/05/31 03:49:11;;;;;;;5.27;4.80;;;;;;;;;;5016844;28;20276;-82
2023/05/31 03:51:41;;;;;;;5.07;4.57;;;;;;;;;;5035415;28;20276;-81
2023/05/31 03:54:07;;;;;;;5.37;4.87;;;;;;;;;;5014971;28;20243;-82
2023/05/31 03:56:32;;;;;;;5.77;5.10;;;;;;;;;;5017498;28;20220;-82
2023/05/31 03:58:58;;;;;;;6.37;4.77;;;;;;;;;;5021778;28;20226;-83
2023/05/31 04:01:27;;;;;;;5.03;4.63;;;;;;;;;;5017420;28;20216;-82
2023/05/31 04:03:52;;;;;;;5.40;4.90;;;;;;;;;;5018067;28;20225;-83
2023/05/31 04:06:23;;;;;;;5.23;4.40;;;;;;;;;;5030267;28;20236;-83
2023/05/31 04:08:50;;;;;;;4.80;4.40;;;;;;;;;;5020534;28;20231;-82
2023/05/31 04:11:16;;;;;;;5.00;4.50;;;;;;;;;;5002152;28;20217;-82
2023/05/31 04:13:42;;;;;;;5.00;4.43;;;;;;;;;;5018666;28;20220;-82
2023/05/31 04:16:10;;;;;;;4.63;4.23;;;;;;;;;;5018478;28;20224;-82
2023/05/31 04:18:38;;;;;;;4.50;4.10;;;;;;;;;;5033321;28;20251;-82
2023/05/31 04:21:04;;;;;;;4.37;3.97;;;;;;;;;;5001477;28;20244;-82
2023/05/31 04:23:34;;;;;;;4.90;4.40;;;;;;;;;;5017234;28;20240;-82
2023/05/31 04:26:01;;;;;;;6.13;4.80;;;;;;;;;;5019662;28;20246;-82
2023/05/31 04:28:29;;;;;;;5.23;4.73;;;;;;;;;;5024257;28;20220;-83
2023/05/31 04:31:00;;;;;;;5.30;4.80;;;;;;;;;;5006196;28;20227;-84
2023/05/31 04:33:29;;;;;;;5.83;4.30;;;;;;;;;;5023967;28;20227;-83
2023/05/31 04:35:58;;;;;;;5.13;4.63;;;;;;;;;;5019794;28;20221;-84
2023/05/31 04:38:27;;;;;;;6.57;4.80;;;;;;;;;;5014992;28;20278;-83
2023/05/31 04:41:00;;;;;;;5.87;4.67;;;;;;;;;;5002649;28;20224;-84
2023/05/31 04:43:29;;;;;;;5.07;4.37;;;;;;;;;;5024921;28;20216;-84
2023/05/31 04:45:55;;;;;;;6.37;4.47;;;;;;;;;;4984427;28;20212;-84
2023/05/31 04:48:26;;;;;;;5.10;4.60;;;;;;;;;;5007850;28;20764;-83
2023/05/31 04:50:55;;;;;;;5.40;4.70;;;;;;;;;;5006844;28;20221;-84
2023/05/31 04:53:21;;;;;;;7.23;4.93;;;;;;;;;;5018895;28;20232;-84
2023/05/31 04:55:51;;;;;;;4.87;4.47;;;;;;;;;;5023544;28;20220;-85
2023/05/31 04:58:19;;;;;;;5.40;4.50;;;;;;;;;;5022013;28;20255;-84
2023/05/31 05:00:48;;;;;;;5.77;4.67;;;;;;;;;;5009240;28;20223;-84
2023/05/31 05:03:23;;;;;;;5.17;4.37;;;;;;;;;;5027678;28;20224;-85
2023/05/31 05:05:50;;;;;;;5.67;4.60;;;;;;;;;;4990726;28;20228;-83
2023/05/31 05:08:21;;;;;;;5.40;4.73;;;;;;;;;;5008713;28;20229;-84
2023/05/31 05:10:50;;;;;;;5.80;4.37;;;;;;;;;;5008299;28;20224;-83
2023/05/31 05:13:17;;;;;;;5.10;4.47;;;;;;;;;;4989964;28;20279;-83
2023/05/31 05:15:45;;;;;;;4.60;4.20;;;;;;;;;;5008946;28;20217;-82
2023/05/31 05:18:10;;;;;;;5.77;4.40;;;;;;;;;;4987299;28;20217;-85
2023/05/31 05:20:39;;;;;;;4.30;3.90;;;;;;;;;;5008408;28;20292;-84
2023/05/31 05:23:07;;;;;;;4.87;4.37;;;;;;;;;;4996056;28;20216;-84
2023/05/31 05:25:34;;;;;;;4.57;4.10;;;;;;;;;;5010196;28;20224;-85
2023/05/31 05:28:03;;;;;;;4.80;3.97;;;;;;;;;;5027697;28;20293;-84
2023/05/31 05:30:29;;;;;;;4.47;3.93;;;;;;;;;;5011269;28;20225;-83
2023/05/31 05:32:54;;;;;;;4.67;3.70;;;;;;;;;;5010084;28;20221;-84
2023/05/31 05:35:20;;;;;;;4.73;4.03;;;;;;;;;;5025008;28;20230;-85
2023/05/31 05:37:49;;;;;;;4.83;4.17;;;;;;;;;;5024819;28;20221;-85
2023/05/31 05:40:19;;;;;;;4.90;3.87;;;;;;;;;;5036608;28;20255;-85
2023/05/31 05:42:45;;;;;;;7.30;3.80;;;;;;;;;;5012108;28;20263;-84
2023/05/31 05:45:11;;;;;;;3.87;3.47;;;;;;;;;;4992761;28;20598;-85
2023/05/31 05:47:44;;;;;;;4.07;3.23;;;;;;;;;;5012324;28;20221;-85
2023/05/31 05:50:15;;;;;;;4.57;3.37;;;;;;;;;;4996394;28;20239;-85
2023/05/31 05:52:41;;;;;;;6.40;3.70;;;;;;;;;;5020510;28;20221;-85
2023/05/31 05:55:12;;;;;;;4.23;3.73;;;;;;;;;;4987566;28;20330;-84
2023/05/31 05:57:40;;;;;;;5.47;3.25;;;;;;;;;;5025340;28;20221;-85
2023/05/31 06:00:30;;;;;;;4.17;3.07;;;;;;;;;;5010465;28;20219;-85
2023/05/31 06:02:56;;;;;;;4.33;3.40;;;;;;;;;;5038421;28;20303;-85
2023/05/31 06:05:25;;;;;;;4.60;2.95;;;;;;;;;;5039952;28;20241;-84
2023/05/31 06:07:56;;;;;;;4.32;2.95;;;;;;;;;;4989622;28;20221;-85
2023/05/31 06:10:27;;;;;;;3.83;3.10;;;;;;;;;;4988025;28;20225;-87
2023/05/31 06:12:54;;;;;;;4.63;2.95;;;;;;;;;;5055388;28;20221;-87
2023/05/31 06:15:21;;;;;;;3.72;2.65;;;;;;;;;;5035748;28;20229;-85
2023/05/31 06:17:52;;;;;;;3.88;2.50;;;;;;;;;;5006501;28;20238;-86
2023/05/31 06:20:18;;;;;;;2.78;2.55;;;;;;;;;;5034862;28;20453;-87
2023/05/31 06:22:52;;;;;;;4.55;2.40;;;;;;;;;;5051468;28;20220;-85
2023/05/31 06:25:22;;;;;;;2.97;2.67;;;;;;;;;;5003956;28;20298;-85
2023/05/31 06:27:52;;;;;;;3.25;2.33;;;;;;;;;;5007378;28;20220;-82
2023/05/31 06:30:18;;;;;;;3.20;2.30;;;;;;;;;;5002226;28;20220;-87
2023/05/31 06:32:46;;;;;;;3.70;2.35;;;;;;;;;;5024537;28;20243;-86
2023/05/31 06:35:18;;;;;;;3.42;2.40;;;;;;;;;;5020965;28;20231;-86
2023/05/31 06:37:47;;;;;;;2.47;2.13;;;;;;;;;;5026018;28;20220;-86
2023/05/31 06:40:18;;;;;;;2.53;2.13;;;;;;;;;;5006220;28;20938;-86
2023/05/31 06:42:48;;;;;;;6.13;2.10;;;;;;;;;;4987894;28;20217;-87
2023/05/31 06:45:28;;;;;;;2.80;1.70;;;;;;;;;;4996895;28;20228;-83
2023/05/31 06:47:53;;;;;;;2.90;1.90;;;;;;;;;;5025528;28;20234;-82
2023/05/31 06:50:24;;;;;;;2.67;1.83;;;;;;;;;;5025728;28;20266;-86
2023/05/31 06:53:12;;;;;;;2.50;1.73;;;;;;;;;;4993614;28;20227;-85
2023/05/31 06:55:50;;;;;;;3.63;1.83;;;;;;;;;;4992934;28;20255;-86
2023/05/31 06:58:24;;;;;;;1.52;1.35;;;;;;;;;;5023481;28;20226;-85
2023/05/31 07:00:51;;;;;;;3.72;1.50;;;;;;;;;;4988047;28;20717;-84
2023/05/31 07:03:23;;;;;;;1.85;1.30;;;;;;;;;;5003916;28;20260;-87
2023/05/31 07:05:50;;;;;;;1.48;1.27;;;;;;;;;;5033342;28;20296;-84
2023/05/31 07:08:16;;;;;;;1.67;1.45;;;;;;;;;;4988690;28;20236;-85
2023/05/31 07:11:01;;;;;;;2.00;1.40;;;;;;;;;;5005971;28;20244;-84
2023/05/31 07:14:01;;;;;;;;;;;;;;;;;;;;;
2023/05/31 07:17:06;;;;;;;;;;;;;;;;;;;;;
2023/05/31 07:20:07;;;;;;;1.40;1.30;;;;;;;;;;4996344;28;20255;-85
2023/05/31 07:22:40;;;;;;;1.23;1.13;;;;;;;;;;4990327;28;20220;-86
2023/05/31 07:25:14;;;;;;;1.42;1.33;;;;;;;;;;5011571;28;20223;-86
2023/05/31 07:27:53;;;;;;;3.65;1.60;;;;;;;;;;5004516;28;20304;-84
2023/05/31 07:30:19;;;;;;;1.45;1.20;;;;;;;;;;4981428;28;20220;-82
2023/05/31 07:32:47;;;;;;;1.98;1.20;;;;;;;;;;5026940;28;20343;-83
2023/05/31 07:35:18;;;;;;;2.10;1.48;;;;;;;;;;4997377;28;20236;-84
2023/05/31 07:38:21;;;;;;;1.85;1.20;;;;;;;;;;4997206;28;20310;-83
2023/05/31 07:41:25;;;;;;;2.22;1.20;;;;;;;;;;5002356;28;20562;-84
2023/05/31 07:44:15;;;;;;;;;;;;;;;;;;;;;
2023/05/31 07:46:41;;;;;;;2.22;1.27;;;;;;;;;;5005495;28;20240;-85
2023/05/31 07:49:16;;;;;;;1.38;1.10;;;;;;;;;;5003729;28;20235;-83
2023/05/31 07:52:07;;;;;;;2.00;1.20;;;;;;;;;;4975975;28;20324;-85
2023/05/31 07:54:54;;;;;;;;;;;;;;;;;;;;;
2023/05/31 07:57:45;;;;;;;1.90;1.13;;;;;;;;;;4978870;28;20229;-84
2023/05/31 08:00:36;;;;;;;1.63;0.93;;;;;;;;;;4998251;28;20287;-85
2023/05/31 08:03:14;;;;;;;2.55;1.20;;;;;;;;;;5004915;28;20243;-86
2023/05/31 08:05:52;;;;;;;3.38;1.30;;;;;;;;;;5009273;28;20668;-83
2023/05/31 08:08:42;;;;;;;1.38;1.20;;;;;;;;;;5000546;28;20233;-84
2023/05/31 08:14:53;;;;;;;;;;;;;;;;;;;;;
2023/05/31 08:17:33;;;;;;;;;;;;;;;;;;;;;
2023/05/31 08:20:11;;;;;;;3.08;1.45;;;;;;;;;;5018568;28;20220;-83
2023/05/31 08:22:52;;;;;;;1.92;1.35;;;;;;;;;;4981569;28;20267;-83
2023/05/31 08:25:31;;;;;;;2.33;1.40;;;;;;;;;;4980546;28;20223;-84
2023/05/31 08:31:48;;;;;;;2.85;1.40;;;;;;;;;;4994064;28;21282;-86
2023/05/31 08:34:30;;;;;;;;;;;;;;;;;;;;;
2023/05/31 08:37:34;;;;;;;3.10;1.40;;;;;;;;;;4973261;28;20759;-88
2023/05/31 08:40:36;;;;;;;;;;;;;;;;;;;;;
2023/05/31 08:43:37;;;;;;;;;;;;;;;;;;;;;
2023/05/31 08:46:39;;;;;;;;;;;;;;;;;;;;;
2023/05/31 08:49:34;;;;;;;2.20;1.70;;;;;;;;;;4939606;28;20218;-83
2023/05/31 08:52:07;;;;;;;2.42;1.45;;;;;;;;;;4930822;28;20226;-84
2023/05/31 08:54:39;;;;;;;1.85;1.40;;;;;;;;;;5008891;28;20316;-85
2023/05/31 08:57:40;;;;;;;;;;;;;;;;;;;;;
2023/05/31 09:00:34;;;;;;;2.63;1.38;;;;;;;;;;5007059;28;20307;-86
2023/05/31 09:03:21;;;;;;;2.65;1.70;;;;;;;;;;4981428;28;20227;-84
2023/05/31 09:05:58;;;;;;;2.13;1.35;;;;;;;;;;5016934;28;20252;-85
2023/05/31 09:08:34;;;;;;;1.52;1.30;;;;;;;;;;5012369;28;20226;-83
2023/05/31 09:11:40;;;;;;;;;;;;;;;;;;;;;
2023/05/31 09:17:38;;;;;;;;;;;;;;;;;;;;;
2023/05/31 09:21:01;;;;;;;3.33;1.65;;;;;;;;;;4965393;28;20672;-86
2023/05/31 09:31:25;;;;;;;5.03;1.50;;;;;;;;;;4964242;28;20296;-86
2023/05/31 09:41:18;;;;;;;3.00;1.70;;;;;;;;;;4979125;28;20689;-86
2023/05/31 09:44:30;;;;;;;;;;;;;;;;;;;;;
2023/05/31 09:47:15;;;;;;;2.97;1.90;;;;;;;;;;5014442;28;20250;-84
2023/05/31 09:50:04;;;;;;;3.80;1.70;;;;;;;;;;5000190;28;20257;-87
2023/05/31 09:53:13;;;;;;;2.13;1.30;;;;;;;;;;5004457;28;20888;-85
2023/05/31 09:56:06;;;;;;;3.38;1.40;;;;;;;;;;5020392;28;20255;-86
2023/05/31 09:59:00;;;;;;;2.15;1.65;;;;;;;;;;4976806;28;20223;-86
2023/05/31 10:01:57;;;;;;;1.85;1.60;;;;;;;;;;4992553;28;20309;-86
2023/05/31 10:04:50;;;;;;;2.65;1.77;;;;;;;;;;5027132;28;20313;-87
2023/05/31 10:07:36;;;;;;;2.13;1.55;;;;;;;;;;4995062;28;20275;-83
2023/05/31 10:10:02;;;;;;;2.67;1.35;;;;;;;;;;4995043;28;20316;-85
2023/05/31 10:12:28;;;;;;;2.45;1.25;;;;;;;;;;5008096;28;20653;-84
2023/05/31 10:15:13;;;;;;;2.20;1.50;;;;;;;;;;4972070;28;20239;-85
2023/05/31 10:18:31;;;;;;;;;;;;;;;;;;;;;
2023/05/31 10:21:56;;;;;;;;;;;;;;;;;;;;;
2023/05/31 10:24:37;;;;;;;1.70;1.50;;;;;;;;;;4955769;28;20243;-83
2023/05/31 10:27:24;;;;;;;1.90;1.50;;;;;;;;;;4996172;28;20239;-87
2023/05/31 10:30:37;;;;;;;2.53;1.60;;;;;;;;;;5014719;28;20284;-85
2023/05/31 10:36:36;;;;;;;2.17;1.50;;;;;;;;;;4963022;28;20231;-84
2023/05/31 10:39:49;;;;;;;2.92;1.48;;;;;;;;;;4974087;28;20342;-85
2023/05/31 10:42:45;;;;;;;4.70;1.48;;;;;;;;;;4986100;28;20221;-83
2023/05/31 10:45:26;;;;;;;;;;;;;;;;;;;;;
2023/05/31 10:48:33;;;;;;;;;;;;;;;;;;;;;
2023/05/31 10:51:22;;;;;;;1.95;1.48;;;;;;;;;;5026784;28;20228;-85
2023/05/31 10:53:56;;;;;;;3.50;1.55;;;;;;;;;;5041307;28;20200;-87
2023/05/31 10:56:26;;;;;;;3.25;1.65;;;;;;;;;;5020336;28;20248;-85
2023/05/31 10:59:03;;;;;;;1.67;1.10;;;;;;;;;;5031096;28;20224;-85
2023/05/31 11:01:32;;;;;;;2.45;1.60;;;;;;;;;;5029860;28;20236;-85
2023/05/31 11:03:58;;;;;;;2.15;1.33;;;;;;;;;;5021464;28;20238;-87
2023/05/31 11:06:30;;;;;;;3.28;1.70;;;;;;;;;;5019676;28;20233;-84
2023/05/31 11:09:05;;;;;;;2.22;1.77;;;;;;;;;;5002754;28;20225;-84
2023/05/31 11:11:30;;;;;;;1.48;1.38;;;;;;;;;;4995981;28;20249;-86
2023/05/31 11:14:09;;;;;;;1.80;1.38;;;;;;;;;;5044923;28;20255;-85
2023/05/31 11:16:46;;;;;;;3.45;1.52;;;;;;;;;;5046980;28;20228;-88
2023/05/31 11:19:15;;;;;;;3.80;1.30;;;;;;;;;;5037690;28;20783;-85
2023/05/31 11:21:50;;;;;;;5.32;1.83;;;;;;;;;;5010120;28;20386;-84
2023/05/31 11:24:33;;;;;;;3.10;1.42;;;;;;;;;;5010360;28;20255;-86
2023/05/31 11:27:02;;;;;;;2.33;1.35;;;;;;;;;;5029767;28;20224;-85
2023/05/31 11:29:46;;;;;;;2.10;1.38;;;;;;;;;;5010710;28;20217;-87
2023/05/31 11:32:14;;;;;;;3.53;1.27;;;;;;;;;;5023827;28;20737;-86
2023/05/31 11:34:56;;;;;;;1.65;1.30;;;;;;;;;;5030267;28;20220;-86
2023/05/31 11:37:25;;;;;;;1.27;1.17;;;;;;;;;;5030045;28;20299;-86
2023/05/31 11:39:50;;;;;;;1.42;1.13;;;;;;;;;;5010379;28;20289;-87
2023/05/31 11:42:19;;;;;;;1.33;1.20;;;;;;;;;;5039961;28;20240;-86
2023/05/31 11:44:49;;;;;;;2.70;1.25;;;;;;;;;;5034221;28;20243;-86
2023/05/31 11:47:21;;;;;;;3.05;1.48;;;;;;;;;;4990770;28;20784;-83
2023/05/31 11:49:47;;;;;;;2.10;1.02;;;;;;;;;;5006358;28;20224;-84
2023/05/31 11:52:17;;;;;;;1.75;1.20;;;;;;;;;;4986013;28;20207;-85
2023/05/31 11:54:48;;;;;;;1.90;1.10;;;;;;;;;;5008575;28;20312;-84
2023/05/31 11:57:17;;;;;;;1.58;1.13;;;;;;;;;;4988610;28;20216;-86
2023/05/31 11:59:48;;;;;;;2.22;1.55;;;;;;;;;;4988803;28;20221;-84
2023/05/31 12:02:17;;;;;;;3.65;1.38;;;;;;;;;;5002587;28;20219;-85
2023/05/31 12:04:45;;;;;;;6.53;1.55;;;;;;;;;;5001199;28;20311;-84
2023/05/31 12:07:16;;;;;;;3.13;1.40;;;;;;;;;;5011833;28;20870;-86
2023/05/31 12:09:42;;;;;;;1.67;1.30;;;;;;;;;;5024524;28;20665;-83
2023/05/31 12:12:11;;;;;;;1.40;1.05;;;;;;;;;;5006078;28;20221;-84
2023/05/31 12:14:37;;;;;;;2.08;1.13;;;;;;;;;;5019787;28;20248;-83
2023/05/31 12:17:06;;;;;;;1.70;1.10;;;;;;;;;;4983536;28;20233;-85
2023/05/31 12:19:35;;;;;;;2.78;1.42;;;;;;;;;;4986513;28;20226;-85
2023/05/31 12:22:01;;;;;;;1.50;1.15;;;;;;;;;;4998847;28;20220;-86
2023/05/31 12:24:27;;;;;;;1.40;1.30;;;;;;;;;;5003101;28;20233;-83
2023/05/31 12:26:55;;;;;;;3.17;1.30;;;;;;;;;;5005349;28;20231;-84
2023/05/31 12:29:26;;;;;;;1.85;1.45;;;;;;;;;;4991014;28;20302;-85
2023/05/31 12:31:51;;;;;;;2.55;1.45;;;;;;;;;;5025006;28;20227;-84
2023/05/31 12:34:20;;;;;;;2.00;1.45;;;;;;;;;;5009854;28;20229;-84
2023/05/31 12:36:49;;;;;;;1.63;1.20;;;;;;;;;;4999008;28;20750;-84
2023/05/31 12:39:18;;;;;;;2.53;1.20;;;;;;;;;;5021405;28;20213;-86
2023/05/31 12:41:47;;;;;;;1.85;1.15;;;;;;;;;;5047190;28;20224;-83
2023/05/31 12:44:20;;;;;;;4.15;1.20;;;;;;;;;;5000748;28;20653;-87
2023/05/31 12:46:49;;;;;;;2.70;1.50;;;;;;;;;;5004569;28;20225;-87
2023/05/31 12:49:27;;;;;;;1.85;1.30;;;;;;;;;;4986615;28;20299;-86
2023/05/31 12:52:06;;;;;;;2.05;1.10;;;;;;;;;;5011937;28;20220;-85
2023/05/31 12:54:38;;;;;;;2.78;1.20;;;;;;;;;;5041218;28;20216;-84
2023/05/31 12:57:08;;;;;;;1.38;0.93;;;;;;;;;;5017319;28;20232;-85
2023/05/31 12:59:34;;;;;;;1.42;1.10;;;;;;;;;;5002164;28;20229;-85
2023/05/31 13:02:00;;;;;;;2.25;1.00;;;;;;;;;;5018995;28;20550;-85
2023/05/31 13:04:28;;;;;;;1.75;1.10;;;;;;;;;;5022156;28;20400;-86
2023/05/31 13:06:56;;;;;;;1.38;1.10;;;;;;;;;;4989149;28;20232;-86
2023/05/31 13:09:24;;;;;;;1.30;0.98;;;;;;;;;;4983656;28;20328;-86
2023/05/31 13:11:51;;;;;;;1.60;1.02;;;;;;;;;;5006069;28;20228;-87
2023/05/31 13:14:23;;;;;;;1.73;1.10;;;;;;;;;;5011778;28;20201;-85
2023/05/31 13:16:57;;;;;;;2.40;1.40;;;;;;;;;;5024489;28;20213;-85
2023/05/31 13:19:22;;;;;;;3.30;1.30;;;;;;;;;;5012462;28;20232;-84
2023/05/31 13:21:51;;;;;;;2.42;1.38;;;;;;;;;;5034588;28;20220;-83
2023/05/31 13:24:19;;;;;;;1.75;1.33;;;;;;;;;;5031397;28;21041;-84
2023/05/31 13:27:07;;;;;;;1.85;1.45;;;;;;;;;;5016341;28;20722;-84
2023/05/31 13:29:32;;;;;;;3.63;1.60;;;;;;;;;;4991594;28;20220;-85
2023/05/31 13:32:08;;;;;;;2.00;1.25;;;;;;;;;;5009147;28;20393;-84
2023/05/31 13:34:36;;;;;;;1.85;1.20;;;;;;;;;;4998226;28;20213;-86
2023/05/31 13:37:05;;;;;;;3.22;1.50;;;;;;;;;;5008303;28;20228;-85
2023/05/31 13:39:34;;;;;;;1.52;1.30;;;;;;;;;;4997373;28;20224;-87
2023/05/31 13:42:02;;;;;;;1.75;1.23;;;;;;;;;;5019570;28;20275;-85
2023/05/31 13:44:35;;;;;;;2.63;1.30;;;;;;;;;;5043059;28;20313;-80
2023/05/31 13:47:03;;;;;;;2.05;1.30;;;;;;;;;;5022142;28;20340;-85
2023/05/31 13:49:31;;;;;;;2.55;1.52;;;;;;;;;;5047173;28;20216;-82
2023/05/31 13:51:56;;;;;;;1.83;1.60;;;;;;;;;;5023435;28;20220;-82
2023/05/31 13:54:26;;;;;;;2.03;1.30;;;;;;;;;;5019919;28;20237;-85
2023/05/31 13:56:52;;;;;;;1.48;1.27;;;;;;;;;;5043082;28;20216;-86
2023/05/31 13:59:20;;;;;;;3.13;1.60;;;;;;;;;;5007313;28;20328;-85
2023/05/31 14:01:48;;;;;;;1.42;1.15;;;;;;;;;;5005678;28;20224;-86
2023/05/31 14:04:17;;;;;;;1.58;1.27;;;;;;;;;;5032709;28;20232;-85
2023/05/31 14:06:46;;;;;;;1.65;1.30;;;;;;;;;;5039119;28;20235;-83
2023/05/31 14:09:14;;;;;;;1.55;1.30;;;;;;;;;;5005672;28;20283;-85
2023/05/31 14:11:40;;;;;;;2.25;1.40;;;;;;;;;;4999275;28;20287;-88
2023/05/31 14:14:09;;;;;;;1.98;1.40;;;;;;;;;;4998760;28;20217;-85
2023/05/31 14:16:35;;;;;;;2.95;1.42;;;;;;;;;;5016308;28;20231;-86
2023/05/31 14:19:03;;;;;;;1.83;1.35;;;;;;;;;;5027504;28;20307;-85
2023/05/31 14:21:41;;;;;;;3.45;1.60;;;;;;;;;;4990679;28;20887;-84
2023/05/31 14:24:24;;;;;;;2.25;1.50;;;;;;;;;;4991287;28;20226;-85
2023/05/31 14:27:26;;;;;;;;;;;;;;;;;;;;;
2023/05/31 14:30:08;;;;;;;1.88;1.30;;;;;;;;;;5016673;28;20807;-85
2023/05/31 14:36:12;;;;;;;1.40;1.30;;;;;;;;;;4931151;28;20332;-84
2023/05/31 14:38:38;;;;;;;3.55;1.33;;;;;;;;;;5016002;28;20696;-85
2023/05/31 14:41:33;;;;;;;2.10;1.20;;;;;;;;;;4977281;28;20219;-87
2023/05/31 14:44:42;;;;;;;;;;;;;;;;;;;;;
2023/05/31 14:48:02;;;;;;;;;;;;;;;;;;;;;
2023/05/31 14:51:29;;;;;;;;;;;;;;;;;;;;;
2023/05/31 14:56:39;;;;;;;2.30;1.50;;;;;;;;;;4992969;28;20223;-77
2023/05/31 14:59:07;;;;;;;3.38;1.55;;;;;;;;;;5008539;28;20267;-77
2023/05/31 15:01:33;;;;;;;1.45;1.27;;;;;;;;;;5014463;28;20750;-78
2023/05/31 15:04:02;;;;;;;2.10;1.33;;;;;;;;;;4998364;28;20220;-77
2023/05/31 15:06:28;;;;;;;2.90;1.40;;;;;;;;;;5016323;28;20441;-75
2023/05/31 15:08:54;;;;;;;1.75;1.30;;;;;;;;;;5017269;28;20220;-77
2023/05/31 15:11:20;;;;;;;2.75;1.50;;;;;;;;;;5014871;28;20228;-75
2023/05/31 15:13:45;;;;;;;3.13;1.38;;;;;;;;;;5016470;28;20272;-75
2023/05/31 15:16:11;;;;;;;1.40;1.30;;;;;;;;;;5013784;28;20212;-77
2023/05/31 15:18:37;;;;;;;1.90;1.25;;;;;;;;;;5015637;28;20775;-77
2023/05/31 15:21:06;;;;;;;3.60;1.30;;;;;;;;;;5012918;28;20209;-76
2023/05/31 15:23:37;;;;;;;2.72;1.35;;;;;;;;;;5010021;28;20252;-76
2023/05/31 15:26:03;;;;;;;4.45;1.30;;;;;;;;;;4993470;28;20221;-76
2023/05/31 15:28:31;;;;;;;1.45;1.10;;;;;;;;;;5009618;28;20299;-75
2023/05/31 15:30:57;;;;;;;2.05;1.20;;;;;;;;;;5014078;28;20304;-75
2023/05/31 15:33:26;;;;;;;2.42;1.20;;;;;;;;;;4980944;28;20255;-75
2023/05/31 15:35:52;;;;;;;1.80;1.00;;;;;;;;;;5030556;28;20221;-76
2023/05/31 15:38:20;;;;;;;2.33;1.00;;;;;;;;;;4998933;28;20271;-77
2023/05/31 15:40:49;;;;;;;1.27;1.17;;;;;;;;;;5011787;28;20221;-73
2023/05/31 15:43:20;;;;;;;3.67;1.10;;;;;;;;;;5014922;28;20295;-75
2023/05/31 15:45:51;;;;;;;2.58;1.00;;;;;;;;;;5008964;28;20237;-74
2023/05/31 15:48:20;;;;;;;1.15;0.80;;;;;;;;;;5015115;28;20248;-75
2023/05/31 15:50:47;;;;;;;1.48;0.90;;;;;;;;;;4998897;28;20789;-77
2023/05/31 15:53:12;;;;;;;1.35;0.82;;;;;;;;;;4995988;28;20208;-74
2023/05/31 15:55:47;;;;;;;1.42;1.00;;;;;;;;;;5010703;28;20216;-76
2023/05/31 15:58:15;;;;;;;1.20;0.82;;;;;;;;;;5016925;28;20224;-77
2023/05/31 16:00:41;;;;;;;0.85;0.80;;;;;;;;;;5014291;28;20209;-76
2023/05/31 16:03:11;;;;;;;1.38;0.85;;;;;;;;;;5015696;28;20306;-74
2023/05/31 16:05:37;;;;;;;1.20;0.80;;;;;;;;;;5017105;28;20608;-76
2023/05/31 16:08:06;;;;;;;1.77;1.08;;;;;;;;;;5018541;28;20213;-76
2023/05/31 16:10:32;;;;;;;1.33;0.73;;;;;;;;;;5015889;28;20225;-74
2023/05/31 16:13:07;;;;;;;1.73;0.98;;;;;;;;;;5015166;28;20225;-76
2023/05/31 16:15:36;;;;;;;0.80;0.80;;;;;;;;;;5013245;28;20236;-74